Portalegre — CQMF — position and weather

sailwx.info

Track history (hours):
 
Tides and Currents Weather Stations Pressure Air Temp Water Temp Dewpoint Dewpoint Depression Visibility Wind Speed Wind Dir Waves Ship Positions

Portalegre

Last reported at 2018-Jun-17 05:25 UTC. Time now 2018-Jun-23 19:39 UTC.
Position N 49°49' W 003°26'.

Length 90 m; draft 5.6 m.

Type: Cargo ship. MMSI: 255803350.

Date/timePositionNaut miles runAvg speedWind from/ knotsBaromVisibWave heightAir tempDewpointWater temp
2018-Jun-17 05:25N 49°49' W 003°26'410.5
2018-Jun-17 05:00N 49°51' W 003°21'611.1
2018-Jun-17 04:28N 49°55' W 003°13'511.6
2018-Jun-17 04:00N 49°57' W 003°06'612.0
2018-Jun-17 03:30N 49°60' W 002°58'612.1
2018-Jun-17 03:00N 50°02' W 002°49'711.9
2018-Jun-17 02:24N 50°03' W 002°38'106 8.6
2018-Jun-16 13:58N 50°33' E 000°03'9 9.6
2018-Jun-16 12:59N 50°35' E 000°17'5 8.8
2018-Jun-16 12:23N 50°37' E 000°25'3 8.3
2018-Jun-16 12:00N 50°37' E 000°30'4 8.0
2018-Jun-16 11:30N 50°39' E 000°35'4 7.9
2018-Jun-16 11:01N 50°41' E 000°41'4 8.0
2018-Jun-16 10:30N 50°43' E 000°46'4 8.5
2018-Jun-16 10:01N 50°46' E 000°51'5 9.3
2018-Jun-16 09:30N 50°49' E 000°57'510.4
2018-Jun-16 08:59N 50°52' E 001°04'511.2
2018-Jun-16 08:30N 50°55' E 001°11'612.0
2018-Jun-16 07:59N 50°59' E 001°18'612.4
2018-Jun-16 07:30N 51°03' E 001°25'612.1
2018-Jun-16 07:01N 51°07' E 001°33'611.1
2018-Jun-16 06:30N 51°11' E 001°40'510.2
2018-Jun-16 06:00N 51°14' E 001°46'5 9.6
2018-Jun-16 05:30N 51°18' E 001°48'5 9.2
2018-Jun-16 05:01N 51°23' E 001°49'4 9.0
2018-Jun-16 04:31N 51°27' E 001°45'5 9.7
2018-Jun-16 04:00N 51°29' E 001°38'611.6
2018-Jun-16 03:30N 51°28' E 001°28'612.1
2018-Jun-16 03:00N 51°29' E 001°19'611.9
2018-Jun-16 02:30N 51°29' E 001°09'511.0
2018-Jun-16 02:01N 51°29' E 001°00'5 9.8
2018-Jun-16 01:30N 51°29' E 000°53'4 7.6
2018-Jun-16 01:01N 51°29' E 000°47'4 8.3
2018-Jun-16 00:31N 51°30' E 000°40'4 8.5
2018-Jun-16 00:01N 51°30' E 000°33'4 7.7
2018-Jun-15 23:30N 51°29' E 000°27'4 7.0
2018-Jun-15 23:00N 51°27' E 000°22'1 2.5
2018-Jun-15 22:31N 51°27' E 000°21'0 0.5
2018-Jun-15 22:01N 51°27' E 000°21'0 0.5
2018-Jun-15 21:30N 51°28' E 000°21'0 0.0
2018-Jun-15 21:00N 51°28' E 000°21'0 0.0
2018-Jun-15 20:31N 51°28' E 000°21'0 0.0
2018-Jun-15 20:00N 51°28' E 000°21'0 0.0
2018-Jun-15 19:31N 51°28' E 000°21'0 0.0
2018-Jun-15 19:01N 51°28' E 000°21'0 0.0
2018-Jun-15 18:30N 51°28' E 000°21'0 0.0
2018-Jun-15 18:01N 51°28' E 000°21'0 0.0
2018-Jun-15 17:30N 51°28' E 000°21'0 0.0
2018-Jun-15 17:00N 51°28' E 000°21'0 0.0
2018-Jun-15 16:31N 51°28' E 000°21'0 0.0
2018-Jun-15 16:00N 51°28' E 000°21'0 0.0
2018-Jun-15 15:31N 51°28' E 000°21'0 0.0
2018-Jun-15 15:01N 51°28' E 000°21'0 0.0
2018-Jun-15 14:30N 51°28' E 000°21'0 0.0
2018-Jun-15 14:00N 51°28' E 000°21'0 0.0
2018-Jun-15 13:31N 51°28' E 000°21'0 0.0
2018-Jun-15 13:01N 51°28' E 000°21'0 0.0
2018-Jun-15 12:30N 51°28' E 000°21'0 0.0
2018-Jun-15 12:01N 51°28' E 000°21'0 0.0
2018-Jun-15 11:31N 51°28' E 000°21'0 0.0
2018-Jun-15 11:01N 51°28' E 000°21'0 0.0
2018-Jun-15 10:31N 51°28' E 000°21'0 0.0
2018-Jun-15 10:01N 51°28' E 000°21'0 0.0
2018-Jun-15 09:31N 51°28' E 000°21'0 0.0
2018-Jun-15 09:00N 51°28' E 000°21'0 0.0
2018-Jun-15 08:30N 51°28' E 000°21'0 0.0
2018-Jun-15 08:01N 51°28' E 000°21'0 0.0
2018-Jun-15 07:30N 51°28' E 000°21'0 0.0
2018-Jun-15 07:01N 51°28' E 000°21'0 0.0
2018-Jun-15 06:31N 51°28' E 000°21'0 0.0
2018-Jun-15 06:01N 51°28' E 000°21'0 0.0
2018-Jun-15 05:30N 51°28' E 000°21'0 0.0
2018-Jun-15 05:01N 51°28' E 000°21'0 0.0
2018-Jun-15 04:31N 51°28' E 000°21'0 0.0
2018-Jun-15 04:00N 51°28' E 000°21'0 0.0
2018-Jun-15 03:31N 51°28' E 000°21'0 0.8
2018-Jun-15 03:00N 51°27' E 000°20'0 0.4
2018-Jun-15 02:30N 51°27' E 000°20'2 4.2
2018-Jun-15 02:01N 51°27' E 000°24'4 7.9
2018-Jun-15 01:30N 51°30' E 000°28'611.7
2018-Jun-15 01:00N 51°30' E 000°38'612.4
2018-Jun-15 00:31N 51°30' E 000°47'5 9.8
2018-Jun-15 00:01N 51°30' E 000°55'2 3.0
2018-Jun-14 23:30N 51°29' E 000°58'4 7.6
2018-Jun-14 23:01N 51°30' E 001°04'4 7.2
2018-Jun-14 22:30N 51°29' E 001°09'4 7.2
2018-Jun-14 22:01N 51°29' E 001°15'4 7.1
2018-Jun-14 21:30N 51°29' E 001°21'4 7.2
2018-Jun-14 21:00N 51°29' E 001°27'3 6.6
2018-Jun-14 20:30N 51°29' E 001°32'3 6.4
2018-Jun-14 20:00N 51°29' E 001°37'3 6.5
2018-Jun-14 19:30N 51°28' E 001°42'3 6.1
2018-Jun-14 19:01N 51°25' E 001°45'4 7.1
2018-Jun-14 18:30N 51°22' E 001°43'4 7.5
2018-Jun-14 18:01N 51°18' E 001°41'4 7.8
2018-Jun-14 17:30N 51°15' E 001°39'4 8.7
2018-Jun-14 17:00N 51°10' E 001°37'510.3
2018-Jun-14 16:31N 51°06' E 001°39'713.0
2018-Jun-14 16:00N 51°01' E 001°32'613.0
2018-Jun-14 15:30N 50°56' E 001°25'712.7
2018-Jun-14 14:57N 50°49' E 001°23'9612.9
2018-Jun-14 07:34N 50°10' W 000°54'115.4
2018-Jun-14 07:30N 50°10' W 000°56'815.1
2018-Jun-14 07:01N 50°08' W 001°07'714.8
2018-Jun-14 06:30N 50°06' W 001°18'714.1
2018-Jun-14 06:00N 50°04' W 001°29'713.1
2018-Jun-14 05:30N 50°02' W 001°38'612.2
2018-Jun-14 05:00N 49°59' W 001°47'611.2
2018-Jun-14 04:30N 49°59' W 001°56'610.7
2018-Jun-14 03:56N 49°57' W 002°05'26 9.0
2018-Jun-14 01:03N 49°49' W 002°43'1 8.6
2018-Jun-14 00:57N 49°49' W 002°45'7 8.0
2018-Jun-14 00:05N 49°46' W 002°54'7510.4
2018-Jun-13 16:48N 48°39' W 002°01'0 0.1
2018-Jun-13 15:06N 48°39' W 002°01'0 0.0
2018-Jun-13 12:15N 48°39' W 002°01'0 0.0
2018-Jun-12 11:12N 48°39' W 002°01'0 0.0
2018-Jun-12 10:57N 48°39' W 002°01'69 4.7
2018-Jun-11 20:28N 49°38' W 002°54'510.7
2018-Jun-11 20:01N 49°43' W 002°55'610.6
2018-Jun-11 19:29N 49°49' W 002°56'510.2
2018-Jun-11 19:01N 49°53' W 002°56'4 8.2
2018-Jun-11 18:30N 49°57' W 002°55'4 8.4
2018-Jun-11 18:00N 49°58' W 002°49'4 7.7
2018-Jun-11 17:31N 49°59' W 002°43'8 7.6
2018-Jun-11 16:28N 50°02' W 002°31'19 8.8
2018-Jun-11 14:17N 50°07' W 002°02'511.0
2018-Jun-11 13:48N 50°08' W 001°54'411.8
2018-Jun-11 13:27N 50°09' W 001°48'2 3.4
2018-Jun-11 13:01N 50°10' W 001°46'5 9.8
2018-Jun-11 12:30N 50°12' W 001°39'612.4
2018-Jun-11 12:01N 50°14' W 001°30'612.4
2018-Jun-11 11:31N 50°15' W 001°20'612.4
2018-Jun-11 11:00N 50°17' W 001°11'612.1
2018-Jun-11 10:30N 50°19' W 001°02'611.2
2018-Jun-11 09:57N 50°21' W 000°52'510.3
2018-Jun-11 09:29N 50°22' W 000°45'6 9.9
2018-Jun-11 08:55N 50°24' W 000°37'7 9.8
2018-Jun-11 08:12N 50°26' W 000°26'2 9.6
2018-Jun-11 07:59N 50°26' W 000°23'5 9.4
2018-Jun-11 07:24N 50°28' W 000°15'4 9.1
2018-Jun-11 06:57N 50°29' W 000°09'6 9.1
2018-Jun-11 06:20N 50°31' W 000°00'4 9.2
2018-Jun-11 05:52N 50°32' E 000°06'7 9.4
2018-Jun-11 05:06N 50°34' E 000°17'1 9.8
2018-Jun-11 05:00N 50°34' E 000°18'510.1
2018-Jun-11 04:28N 50°36' E 000°27'510.8
2018-Jun-11 04:00N 50°37' E 000°34'611.5
2018-Jun-11 03:30N 50°41' E 000°41'612.0
2018-Jun-11 03:00N 50°44' E 000°49'612.0
2018-Jun-11 02:30N 50°48' E 000°57'1311.9
2018-Jun-11 01:25N 50°56' E 001°12'711.2
2018-Jun-11 00:49N 51°01' E 001°21'310.6
2018-Jun-11 00:30N 51°03' E 001°25'510.2
2018-Jun-11 00:00N 51°06' E 001°31'5 9.3
2018-Jun-10 23:30N 51°09' E 001°37'4 8.8
2018-Jun-10 23:00N 51°12' E 001°42'4 8.8
2018-Jun-10 22:30N 51°15' E 001°47'5 9.2
2018-Jun-10 22:00N 51°19' E 001°49'5 9.9
2018-Jun-10 21:30N 51°24' E 001°52'510.0
2018-Jun-10 21:00N 51°28' E 001°57'510.6
2018-Jun-10 20:29N 51°32' E 002°03'3112.0
2018-Jun-10 17:53N 51°56' E 002°36'512.5
2018-Jun-10 17:27N 51°60' E 002°42'2512.1
2018-Jun-10 15:21N 52°19' E 003°08'411.1
2018-Jun-10 15:00N 52°22' E 003°12'8510.6
2018-Jun-10 06:58N 53°29' E 004°41'511.2
2018-Jun-10 06:30N 53°31' E 004°49'510.9
2018-Jun-10 06:00N 53°32' E 004°57'510.5
2018-Jun-10 05:30N 53°34' E 005°06'510.1
2018-Jun-10 05:00N 53°36' E 005°14'5 9.9
2018-Jun-10 04:30N 53°38' E 005°22'7 9.8
2018-Jun-10 03:49N 53°40' E 005°32'1610.3
2018-Jun-10 02:17N 53°45' E 005°58'410.7
2018-Jun-10 01:54N 53°46' E 006°04'611.0
2018-Jun-10 01:19N 53°48' E 006°14'411.5
2018-Jun-10 00:58N 53°49' E 006°21'511.8
2018-Jun-10 00:30N 53°51' E 006°30'611.9
2018-Jun-10 00:00N 53°53' E 006°40'612.0
2018-Jun-09 23:30N 53°54' E 006°49'612.0
2018-Jun-09 23:00N 53°56' E 006°59'611.9
2018-Jun-09 22:30N 53°57' E 007°09'611.7
2018-Jun-09 22:00N 53°58' E 007°19'611.6
2018-Jun-09 21:30N 53°60' E 007°29'611.6
2018-Jun-09 21:00N 54°01' E 007°38'611.2
2018-Jun-09 20:30N 54°02' E 007°47'510.8
2018-Jun-09 20:00N 54°02' E 007°57'610.4
2018-Jun-09 19:28N 54°01' E 008°06'4 9.8
2018-Jun-09 19:01N 54°00' E 008°14'5 9.8
2018-Jun-09 18:30N 53°60' E 008°22'5 9.2
2018-Jun-09 18:00N 53°59' E 008°30'4 8.3
2018-Jun-09 17:30N 53°58' E 008°36'4 7.7
2018-Jun-09 17:00N 53°55' E 008°41'5 9.4
2018-Jun-09 16:30N 53°51' E 008°46'510.8
2018-Jun-09 16:00N 53°51' E 008°55'1211.7
2018-Jun-09 15:00N 53°53' E 009°15'612.3
2018-Jun-09 14:30N 53°49' E 009°22'612.7
2018-Jun-09 14:00N 53°43' E 009°28'612.8
2018-Jun-09 13:30N 53°37' E 009°33'612.5
2018-Jun-09 13:00N 53°34' E 009°42'612.5
2018-Jun-09 12:30N 53°33' E 009°52'4 8.2
2018-Jun-09 12:00N 53°30' E 009°57'0 0.4
2018-Jun-09 11:30N 53°30' E 009°58'0 0.0
2018-Jun-09 11:00N 53°30' E 009°58'0 0.0
2018-Jun-09 10:30N 53°30' E 009°58'0 0.0
2018-Jun-09 10:00N 53°30' E 009°58'0 0.0
2018-Jun-09 09:30N 53°30' E 009°58'0 0.0
2018-Jun-09 09:00N 53°30' E 009°58'0 0.0
2018-Jun-09 08:30N 53°30' E 009°58'0 0.0
2018-Jun-09 08:00N 53°30' E 009°58'0 0.0
2018-Jun-09 07:30N 53°30' E 009°58'0 0.0
2018-Jun-09 07:00N 53°30' E 009°58'0 0.0
2018-Jun-09 06:30N 53°30' E 009°58'0 0.0
2018-Jun-09 06:00N 53°30' E 009°58'0 0.0
2018-Jun-09 05:30N 53°30' E 009°58'0 0.0
2018-Jun-09 05:00N 53°30' E 009°58'0 0.0
2018-Jun-09 04:30N 53°30' E 009°58'0 0.0
2018-Jun-09 04:00N 53°30' E 009°58'0 0.0
2018-Jun-09 03:30N 53°30' E 009°58'0 0.0
2018-Jun-09 03:00N 53°30' E 009°58'0 0.0
2018-Jun-09 02:30N 53°30' E 009°58'0 0.0
2018-Jun-09 02:00N 53°30' E 009°58'0 0.0
2018-Jun-09 01:27N 53°30' E 009°58'0 0.0
2018-Jun-09 01:00N 53°30' E 009°58'1 1.2
2018-Jun-09 00:30N 53°31' E 009°57'4 7.6
2018-Jun-09 00:00N 53°33' E 009°51'4 8.7
2018-Jun-08 23:30N 53°34' E 009°44'5 9.8
2018-Jun-08 23:00N 53°35' E 009°37'510.2
2018-Jun-08 22:30N 53°39' E 009°31'510.3
2018-Jun-08 22:00N 53°44' E 009°27'611.2
2018-Jun-08 21:30N 53°49' E 009°22'611.7
2018-Jun-08 21:00N 53°53' E 009°15'510.8
2018-Jun-08 20:30N 53°52' E 009°06'612.4
2018-Jun-08 20:00N 53°51' E 008°55'612.0
2018-Jun-08 19:30N 53°51' E 008°45'612.6
2018-Jun-08 19:00N 53°56' E 008°39'612.3
2018-Jun-08 18:30N 53°58' E 008°29'612.1
2018-Jun-08 18:00N 53°59' E 008°19'612.4
2018-Jun-08 17:30N 53°59' E 008°09'612.0
2018-Jun-08 17:00N 53°57' E 007°59'510.5
2018-Jun-08 16:30N 53°52' E 007°55'510.0
2018-Jun-08 16:00N 53°51' E 008°03'5 9.4
2018-Jun-08 15:30N 53°48' E 008°09'5 9.3
2018-Jun-08 15:00N 53°44' E 008°14'5 9.7
2018-Jun-08 14:30N 53°41' E 008°21'510.6
2018-Jun-08 14:00N 53°38' E 008°27'611.3
2018-Jun-08 13:30N 53°33' E 008°33'5 9.6
2018-Jun-08 13:00N 53°29' E 008°30'612.2
2018-Jun-08 12:30N 53°23' E 008°30'611.5
2018-Jun-08 12:00N 53°17' E 008°29'611.4
2018-Jun-08 11:30N 53°12' E 008°32'5 9.4
2018-Jun-08 11:00N 53°09' E 008°38'5 9.8
2018-Jun-08 10:30N 53°06' E 008°45'0 0.4
2018-Jun-08 09:58N 53°07' E 008°45'0 0.0
2018-Jun-08 09:28N 53°07' E 008°45'0 0.0
2018-Jun-08 08:58N 53°07' E 008°45'0 0.0
2018-Jun-08 08:28N 53°07' E 008°45'0 0.0
2018-Jun-08 07:58N 53°07' E 008°45'0 0.0
2018-Jun-08 07:28N 53°07' E 008°45'0 0.0
2018-Jun-08 06:58N 53°07' E 008°45'0 0.0
2018-Jun-08 06:28N 53°07' E 008°45'0 0.0
2018-Jun-08 05:58N 53°07' E 008°45'0 0.0
2018-Jun-08 05:28N 53°07' E 008°45'0 0.0
2018-Jun-08 04:58N 53°07' E 008°45'0 0.0
2018-Jun-08 04:28N 53°07' E 008°45'0 0.0
2018-Jun-08 03:58N 53°07' E 008°45'0 0.0
2018-Jun-08 03:28N 53°07' E 008°45'0 0.0
2018-Jun-08 02:58N 53°07' E 008°45'0 0.0
2018-Jun-08 02:28N 53°07' E 008°45'0 0.0
2018-Jun-08 01:58N 53°07' E 008°45'0 0.0
2018-Jun-08 01:28N 53°07' E 008°45'0 0.0
2018-Jun-08 00:58N 53°07' E 008°45'0 0.0
2018-Jun-08 00:28N 53°07' E 008°45'0 0.0
2018-Jun-07 23:58N 53°07' E 008°45'0 0.0
2018-Jun-07 23:28N 53°07' E 008°45'0 0.0
2018-Jun-07 22:58N 53°07' E 008°45'0 0.0
2018-Jun-07 22:28N 53°07' E 008°45'0 0.0
2018-Jun-07 21:58N 53°07' E 008°45'0 0.0
2018-Jun-07 21:28N 53°07' E 008°45'0 0.0
2018-Jun-07 20:58N 53°07' E 008°45'0 0.0
2018-Jun-07 20:28N 53°07' E 008°45'0 0.0
2018-Jun-07 19:58N 53°07' E 008°45'0 0.0
2018-Jun-07 19:28N 53°07' E 008°45'0 0.0
2018-Jun-07 18:58N 53°07' E 008°45'0 0.0
2018-Jun-07 18:28N 53°07' E 008°45'0 0.0
2018-Jun-07 17:58N 53°07' E 008°45'0 0.0
2018-Jun-07 17:28N 53°07' E 008°45'0 0.0
2018-Jun-07 16:58N 53°07' E 008°45'0 0.0
2018-Jun-07 16:28N 53°07' E 008°45'0 0.0
2018-Jun-07 15:58N 53°07' E 008°45'0 0.0
2018-Jun-07 15:28N 53°07' E 008°45'0 0.0
2018-Jun-07 14:58N 53°07' E 008°45'0 0.0
2018-Jun-07 14:28N 53°07' E 008°45'0 0.0
2018-Jun-07 13:58N 53°07' E 008°45'0 0.0
2018-Jun-07 13:28N 53°07' E 008°45'0 0.0
2018-Jun-07 12:58N 53°07' E 008°45'0 0.0
2018-Jun-07 12:28N 53°07' E 008°45'0 0.0
2018-Jun-07 11:58N 53°07' E 008°45'0 0.0
2018-Jun-07 11:28N 53°07' E 008°45'0 0.0
2018-Jun-07 10:58N 53°07' E 008°45'0 0.0
2018-Jun-07 10:28N 53°07' E 008°45'0 0.0
2018-Jun-07 09:58N 53°07' E 008°45'0 0.0
2018-Jun-07 09:28N 53°07' E 008°45'0 0.0
2018-Jun-07 08:58N 53°07' E 008°45'0 0.0
2018-Jun-07 08:28N 53°07' E 008°45'0 0.0
2018-Jun-07 07:58N 53°07' E 008°45'0 0.0
2018-Jun-07 07:28N 53°07' E 008°45'0 0.0
2018-Jun-07 06:58N 53°07' E 008°45'0 0.0
2018-Jun-07 06:28N 53°07' E 008°45'0 0.0
2018-Jun-07 05:58N 53°07' E 008°45'0 0.0
2018-Jun-07 05:28N 53°07' E 008°45'  
Track history (hours):
 
Tides and Currents Weather Stations Pressure Air Temp Water Temp Dewpoint Dewpoint Depression Visibility Wind Speed Wind Dir Waves Ship Positions

Portalegre

Last reported at 2018-Jun-17 05:25 UTC. Time now 2018-Jun-23 19:39 UTC.
Position N 49°49' W 003°26'.

Length 90 m; draft 5.6 m.

Type: Cargo ship. MMSI: 255803350.

Date/timePositionNaut miles runAvg speedWind from/ knotsBaromVisibWave heightAir tempDewpointWater temp
2018-Jun-17 05:25N 49°49' W 003°26'410.5
2018-Jun-17 05:00N 49°51' W 003°21'611.1
2018-Jun-17 04:28N 49°55' W 003°13'511.6
2018-Jun-17 04:00N 49°57' W 003°06'612.0
2018-Jun-17 03:30N 49°60' W 002°58'612.1
2018-Jun-17 03:00N 50°02' W 002°49'711.9
2018-Jun-17 02:24N 50°03' W 002°38'106 8.6
2018-Jun-16 13:58N 50°33' E 000°03'9 9.6
2018-Jun-16 12:59N 50°35' E 000°17'5 8.8
2018-Jun-16 12:23N 50°37' E 000°25'3 8.3
2018-Jun-16 12:00N 50°37' E 000°30'4 8.0
2018-Jun-16 11:30N 50°39' E 000°35'4 7.9
2018-Jun-16 11:01N 50°41' E 000°41'4 8.0
2018-Jun-16 10:30N 50°43' E 000°46'4 8.5
2018-Jun-16 10:01N 50°46' E 000°51'5 9.3
2018-Jun-16 09:30N 50°49' E 000°57'510.4
2018-Jun-16 08:59N 50°52' E 001°04'511.2
2018-Jun-16 08:30N 50°55' E 001°11'612.0
2018-Jun-16 07:59N 50°59' E 001°18'612.4
2018-Jun-16 07:30N 51°03' E 001°25'612.1
2018-Jun-16 07:01N 51°07' E 001°33'611.1
2018-Jun-16 06:30N 51°11' E 001°40'510.2
2018-Jun-16 06:00N 51°14' E 001°46'5 9.6
2018-Jun-16 05:30N 51°18' E 001°48'5 9.2
2018-Jun-16 05:01N 51°23' E 001°49'4 9.0
2018-Jun-16 04:31N 51°27' E 001°45'5 9.7
2018-Jun-16 04:00N 51°29' E 001°38'611.6
2018-Jun-16 03:30N 51°28' E 001°28'612.1
2018-Jun-16 03:00N 51°29' E 001°19'611.9
2018-Jun-16 02:30N 51°29' E 001°09'511.0
2018-Jun-16 02:01N 51°29' E 001°00'5 9.8
2018-Jun-16 01:30N 51°29' E 000°53'4 7.6
2018-Jun-16 01:01N 51°29' E 000°47'4 8.3
2018-Jun-16 00:31N 51°30' E 000°40'4 8.5
2018-Jun-16 00:01N 51°30' E 000°33'4 7.7
2018-Jun-15 23:30N 51°29' E 000°27'4 7.0
2018-Jun-15 23:00N 51°27' E 000°22'1 2.5
2018-Jun-15 22:31N 51°27' E 000°21'0 0.5
2018-Jun-15 22:01N 51°27' E 000°21'0 0.5
2018-Jun-15 21:30N 51°28' E 000°21'0 0.0
2018-Jun-15 21:00N 51°28' E 000°21'0 0.0
2018-Jun-15 20:31N 51°28' E 000°21'0 0.0
2018-Jun-15 20:00N 51°28' E 000°21'0 0.0
2018-Jun-15 19:31N 51°28' E 000°21'0 0.0
2018-Jun-15 19:01N 51°28' E 000°21'0 0.0
2018-Jun-15 18:30N 51°28' E 000°21'0 0.0
2018-Jun-15 18:01N 51°28' E 000°21'0 0.0
2018-Jun-15 17:30N 51°28' E 000°21'0 0.0
2018-Jun-15 17:00N 51°28' E 000°21'0 0.0
2018-Jun-15 16:31N 51°28' E 000°21'0 0.0
2018-Jun-15 16:00N 51°28' E 000°21'0 0.0
2018-Jun-15 15:31N 51°28' E 000°21'0 0.0
2018-Jun-15 15:01N 51°28' E 000°21'0 0.0
2018-Jun-15 14:30N 51°28' E 000°21'0 0.0
2018-Jun-15 14:00N 51°28' E 000°21'0 0.0
2018-Jun-15 13:31N 51°28' E 000°21'0 0.0
2018-Jun-15 13:01N 51°28' E 000°21'0 0.0
2018-Jun-15 12:30N 51°28' E 000°21'0 0.0
2018-Jun-15 12:01N 51°28' E 000°21'0 0.0
2018-Jun-15 11:31N 51°28' E 000°21'0 0.0
2018-Jun-15 11:01N 51°28' E 000°21'0 0.0
2018-Jun-15 10:31N 51°28' E 000°21'0 0.0
2018-Jun-15 10:01N 51°28' E 000°21'0 0.0
2018-Jun-15 09:31N 51°28' E 000°21'0 0.0
2018-Jun-15 09:00N 51°28' E 000°21'0 0.0
2018-Jun-15 08:30N 51°28' E 000°21'0 0.0
2018-Jun-15 08:01N 51°28' E 000°21'0 0.0
2018-Jun-15 07:30N 51°28' E 000°21'0 0.0
2018-Jun-15 07:01N 51°28' E 000°21'0 0.0
2018-Jun-15 06:31N 51°28' E 000°21'0 0.0
2018-Jun-15 06:01N 51°28' E 000°21'0 0.0
2018-Jun-15 05:30N 51°28' E 000°21'0 0.0
2018-Jun-15 05:01N 51°28' E 000°21'0 0.0
2018-Jun-15 04:31N 51°28' E 000°21'0 0.0
2018-Jun-15 04:00N 51°28' E 000°21'0 0.0
2018-Jun-15 03:31N 51°28' E 000°21'0 0.8
2018-Jun-15 03:00N 51°27' E 000°20'0 0.4
2018-Jun-15 02:30N 51°27' E 000°20'2 4.2
2018-Jun-15 02:01N 51°27' E 000°24'4 7.9
2018-Jun-15 01:30N 51°30' E 000°28'611.7
2018-Jun-15 01:00N 51°30' E 000°38'612.4
2018-Jun-15 00:31N 51°30' E 000°47'5 9.8
2018-Jun-15 00:01N 51°30' E 000°55'2 3.0
2018-Jun-14 23:30N 51°29' E 000°58'4 7.6
2018-Jun-14 23:01N 51°30' E 001°04'4 7.2
2018-Jun-14 22:30N 51°29' E 001°09'4 7.2
2018-Jun-14 22:01N 51°29' E 001°15'4 7.1
2018-Jun-14 21:30N 51°29' E 001°21'4 7.2
2018-Jun-14 21:00N 51°29' E 001°27'3 6.6
2018-Jun-14 20:30N 51°29' E 001°32'3 6.4
2018-Jun-14 20:00N 51°29' E 001°37'3 6.5
2018-Jun-14 19:30N 51°28' E 001°42'3 6.1
2018-Jun-14 19:01N 51°25' E 001°45'4 7.1
2018-Jun-14 18:30N 51°22' E 001°43'4 7.5
2018-Jun-14 18:01N 51°18' E 001°41'4 7.8
2018-Jun-14 17:30N 51°15' E 001°39'4 8.7
2018-Jun-14 17:00N 51°10' E 001°37'510.3
2018-Jun-14 16:31N 51°06' E 001°39'713.0
2018-Jun-14 16:00N 51°01' E 001°32'613.0
2018-Jun-14 15:30N 50°56' E 001°25'712.7
2018-Jun-14 14:57N 50°49' E 001°23'9612.9
2018-Jun-14 07:34N 50°10' W 000°54'115.4
2018-Jun-14 07:30N 50°10' W 000°56'815.1
2018-Jun-14 07:01N 50°08' W 001°07'714.8
2018-Jun-14 06:30N 50°06' W 001°18'714.1
2018-Jun-14 06:00N 50°04' W 001°29'713.1
2018-Jun-14 05:30N 50°02' W 001°38'612.2
2018-Jun-14 05:00N 49°59' W 001°47'611.2
2018-Jun-14 04:30N 49°59' W 001°56'610.7
2018-Jun-14 03:56N 49°57' W 002°05'26 9.0
2018-Jun-14 01:03N 49°49' W 002°43'1 8.6
2018-Jun-14 00:57N 49°49' W 002°45'7 8.0
2018-Jun-14 00:05N 49°46' W 002°54'7510.4
2018-Jun-13 16:48N 48°39' W 002°01'0 0.1
2018-Jun-13 15:06N 48°39' W 002°01'0 0.0
2018-Jun-13 12:15N 48°39' W 002°01'0 0.0
2018-Jun-12 11:12N 48°39' W 002°01'0 0.0
2018-Jun-12 10:57N 48°39' W 002°01'69 4.7
2018-Jun-11 20:28N 49°38' W 002°54'510.7
2018-Jun-11 20:01N 49°43' W 002°55'610.6
2018-Jun-11 19:29N 49°49' W 002°56'510.2
2018-Jun-11 19:01N 49°53' W 002°56'4 8.2
2018-Jun-11 18:30N 49°57' W 002°55'4 8.4
2018-Jun-11 18:00N 49°58' W 002°49'4 7.7
2018-Jun-11 17:31N 49°59' W 002°43'8 7.6
2018-Jun-11 16:28N 50°02' W 002°31'19 8.8
2018-Jun-11 14:17N 50°07' W 002°02'511.0
2018-Jun-11 13:48N 50°08' W 001°54'411.8
2018-Jun-11 13:27N 50°09' W 001°48'2 3.4
2018-Jun-11 13:01N 50°10' W 001°46'5 9.8
2018-Jun-11 12:30N 50°12' W 001°39'612.4
2018-Jun-11 12:01N 50°14' W 001°30'612.4
2018-Jun-11 11:31N 50°15' W 001°20'612.4
2018-Jun-11 11:00N 50°17' W 001°11'612.1
2018-Jun-11 10:30N 50°19' W 001°02'611.2
2018-Jun-11 09:57N 50°21' W 000°52'510.3
2018-Jun-11 09:29N 50°22' W 000°45'6 9.9
2018-Jun-11 08:55N 50°24' W 000°37'7 9.8
2018-Jun-11 08:12N 50°26' W 000°26'2 9.6
2018-Jun-11 07:59N 50°26' W 000°23'5 9.4
2018-Jun-11 07:24N 50°28' W 000°15'4 9.1
2018-Jun-11 06:57N 50°29' W 000°09'6 9.1
2018-Jun-11 06:20N 50°31' W 000°00'4 9.2
2018-Jun-11 05:52N 50°32' E 000°06'7 9.4
2018-Jun-11 05:06N 50°34' E 000°17'1 9.8
2018-Jun-11 05:00N 50°34' E 000°18'510.1
2018-Jun-11 04:28N 50°36' E 000°27'510.8
2018-Jun-11 04:00N 50°37' E 000°34'611.5
2018-Jun-11 03:30N 50°41' E 000°41'612.0
2018-Jun-11 03:00N 50°44' E 000°49'612.0
2018-Jun-11 02:30N 50°48' E 000°57'1311.9
2018-Jun-11 01:25N 50°56' E 001°12'711.2
2018-Jun-11 00:49N 51°01' E 001°21'310.6
2018-Jun-11 00:30N 51°03' E 001°25'510.2
2018-Jun-11 00:00N 51°06' E 001°31'5 9.3
2018-Jun-10 23:30N 51°09' E 001°37'4 8.8
2018-Jun-10 23:00N 51°12' E 001°42'4 8.8
2018-Jun-10 22:30N 51°15' E 001°47'5 9.2
2018-Jun-10 22:00N 51°19' E 001°49'5 9.9
2018-Jun-10 21:30N 51°24' E 001°52'510.0
2018-Jun-10 21:00N 51°28' E 001°57'510.6
2018-Jun-10 20:29N 51°32' E 002°03'3112.0
2018-Jun-10 17:53N 51°56' E 002°36'512.5
2018-Jun-10 17:27N 51°60' E 002°42'2512.1
2018-Jun-10 15:21N 52°19' E 003°08'411.1
2018-Jun-10 15:00N 52°22' E 003°12'8510.6
2018-Jun-10 06:58N 53°29' E 004°41'511.2
2018-Jun-10 06:30N 53°31' E 004°49'510.9
2018-Jun-10 06:00N 53°32' E 004°57'510.5
2018-Jun-10 05:30N 53°34' E 005°06'510.1
2018-Jun-10 05:00N 53°36' E 005°14'5 9.9
2018-Jun-10 04:30N 53°38' E 005°22'7 9.8
2018-Jun-10 03:49N 53°40' E 005°32'1610.3
2018-Jun-10 02:17N 53°45' E 005°58'410.7
2018-Jun-10 01:54N 53°46' E 006°04'611.0
2018-Jun-10 01:19N 53°48' E 006°14'411.5
2018-Jun-10 00:58N 53°49' E 006°21'511.8
2018-Jun-10 00:30N 53°51' E 006°30'611.9
2018-Jun-10 00:00N 53°53' E 006°40'612.0
2018-Jun-09 23:30N 53°54' E 006°49'612.0
2018-Jun-09 23:00N 53°56' E 006°59'611.9
2018-Jun-09 22:30N 53°57' E 007°09'611.7
2018-Jun-09 22:00N 53°58' E 007°19'611.6
2018-Jun-09 21:30N 53°60' E 007°29'611.6
2018-Jun-09 21:00N 54°01' E 007°38'611.2
2018-Jun-09 20:30N 54°02' E 007°47'510.8
2018-Jun-09 20:00N 54°02' E 007°57'610.4
2018-Jun-09 19:28N 54°01' E 008°06'4 9.8
2018-Jun-09 19:01N 54°00' E 008°14'5 9.8
2018-Jun-09 18:30N 53°60' E 008°22'5 9.2
2018-Jun-09 18:00N 53°59' E 008°30'4 8.3
2018-Jun-09 17:30N 53°58' E 008°36'4 7.7
2018-Jun-09 17:00N 53°55' E 008°41'5 9.4
2018-Jun-09 16:30N 53°51' E 008°46'510.8
2018-Jun-09 16:00N 53°51' E 008°55'1211.7
2018-Jun-09 15:00N 53°53' E 009°15'612.3
2018-Jun-09 14:30N 53°49' E 009°22'612.7
2018-Jun-09 14:00N 53°43' E 009°28'612.8
2018-Jun-09 13:30N 53°37' E 009°33'612.5
2018-Jun-09 13:00N 53°34' E 009°42'612.5
2018-Jun-09 12:30N 53°33' E 009°52'4 8.2
2018-Jun-09 12:00N 53°30' E 009°57'0 0.4
2018-Jun-09 11:30N 53°30' E 009°58'0 0.0
2018-Jun-09 11:00N 53°30' E 009°58'0 0.0
2018-Jun-09 10:30N 53°30' E 009°58'0 0.0
2018-Jun-09 10:00N 53°30' E 009°58'0 0.0
2018-Jun-09 09:30N 53°30' E 009°58'0 0.0
2018-Jun-09 09:00N 53°30' E 009°58'0 0.0
2018-Jun-09 08:30N 53°30' E 009°58'0 0.0
2018-Jun-09 08:00N 53°30' E 009°58'0 0.0
2018-Jun-09 07:30N 53°30' E 009°58'0 0.0
2018-Jun-09 07:00N 53°30' E 009°58'0 0.0
2018-Jun-09 06:30N 53°30' E 009°58'0 0.0
2018-Jun-09 06:00N 53°30' E 009°58'0 0.0
2018-Jun-09 05:30N 53°30' E 009°58'0 0.0
2018-Jun-09 05:00N 53°30' E 009°58'0 0.0
2018-Jun-09 04:30N 53°30' E 009°58'0 0.0
2018-Jun-09 04:00N 53°30' E 009°58'0 0.0
2018-Jun-09 03:30N 53°30' E 009°58'0 0.0
2018-Jun-09 03:00N 53°30' E 009°58'0 0.0
2018-Jun-09 02:30N 53°30' E 009°58'0 0.0
2018-Jun-09 02:00N 53°30' E 009°58'0 0.0
2018-Jun-09 01:27N 53°30' E 009°58'0 0.0
2018-Jun-09 01:00N 53°30' E 009°58'1 1.2
2018-Jun-09 00:30N 53°31' E 009°57'4 7.6
2018-Jun-09 00:00N 53°33' E 009°51'4 8.7
2018-Jun-08 23:30N 53°34' E 009°44'5 9.8
2018-Jun-08 23:00N 53°35' E 009°37'510.2
2018-Jun-08 22:30N 53°39' E 009°31'510.3
2018-Jun-08 22:00N 53°44' E 009°27'611.2
2018-Jun-08 21:30N 53°49' E 009°22'611.7
2018-Jun-08 21:00N 53°53' E 009°15'510.8
2018-Jun-08 20:30N 53°52' E 009°06'612.4
2018-Jun-08 20:00N 53°51' E 008°55'612.0
2018-Jun-08 19:30N 53°51' E 008°45'612.6
2018-Jun-08 19:00N 53°56' E 008°39'612.3
2018-Jun-08 18:30N 53°58' E 008°29'612.1
2018-Jun-08 18:00N 53°59' E 008°19'612.4
2018-Jun-08 17:30N 53°59' E 008°09'612.0
2018-Jun-08 17:00N 53°57' E 007°59'510.5
2018-Jun-08 16:30N 53°52' E 007°55'510.0
2018-Jun-08 16:00N 53°51' E 008°03'5 9.4
2018-Jun-08 15:30N 53°48' E 008°09'5 9.3
2018-Jun-08 15:00N 53°44' E 008°14'5 9.7
2018-Jun-08 14:30N 53°41' E 008°21'510.6
2018-Jun-08 14:00N 53°38' E 008°27'611.3
2018-Jun-08 13:30N 53°33' E 008°33'5 9.6
2018-Jun-08 13:00N 53°29' E 008°30'612.2
2018-Jun-08 12:30N 53°23' E 008°30'611.5
2018-Jun-08 12:00N 53°17' E 008°29'611.4
2018-Jun-08 11:30N 53°12' E 008°32'5 9.4
2018-Jun-08 11:00N 53°09' E 008°38'5 9.8
2018-Jun-08 10:30N 53°06' E 008°45'0 0.4
2018-Jun-08 09:58N 53°07' E 008°45'0 0.0
2018-Jun-08 09:28N 53°07' E 008°45'0 0.0
2018-Jun-08 08:58N 53°07' E 008°45'0 0.0
2018-Jun-08 08:28N 53°07' E 008°45'0 0.0
2018-Jun-08 07:58N 53°07' E 008°45'0 0.0
2018-Jun-08 07:28N 53°07' E 008°45'0 0.0
2018-Jun-08 06:58N 53°07' E 008°45'0 0.0
2018-Jun-08 06:28N 53°07' E 008°45'0 0.0
2018-Jun-08 05:58N 53°07' E 008°45'0 0.0
2018-Jun-08 05:28N 53°07' E 008°45'0 0.0
2018-Jun-08 04:58N 53°07' E 008°45'0 0.0
2018-Jun-08 04:28N 53°07' E 008°45'0 0.0
2018-Jun-08 03:58N 53°07' E 008°45'0 0.0
2018-Jun-08 03:28N 53°07' E 008°45'0 0.0
2018-Jun-08 02:58N 53°07' E 008°45'0 0.0
2018-Jun-08 02:28N 53°07' E 008°45'0 0.0
2018-Jun-08 01:58N 53°07' E 008°45'0 0.0
2018-Jun-08 01:28N 53°07' E 008°45'0 0.0
2018-Jun-08 00:58N 53°07' E 008°45'0 0.0
2018-Jun-08 00:28N 53°07' E 008°45'0 0.0
2018-Jun-07 23:58N 53°07' E 008°45'0 0.0
2018-Jun-07 23:28N 53°07' E 008°45'0 0.0
2018-Jun-07 22:58N 53°07' E 008°45'0 0.0
2018-Jun-07 22:28N 53°07' E 008°45'0 0.0
2018-Jun-07 21:58N 53°07' E 008°45'0 0.0
2018-Jun-07 21:28N 53°07' E 008°45'0 0.0
2018-Jun-07 20:58N 53°07' E 008°45'0 0.0
2018-Jun-07 20:28N 53°07' E 008°45'0 0.0
2018-Jun-07 19:58N 53°07' E 008°45'0 0.0
2018-Jun-07 19:28N 53°07' E 008°45'0 0.0
2018-Jun-07 18:58N 53°07' E 008°45'0 0.0
2018-Jun-07 18:28N 53°07' E 008°45'0 0.0
2018-Jun-07 17:58N 53°07' E 008°45'0 0.0
2018-Jun-07 17:28N 53°07' E 008°45'0 0.0
2018-Jun-07 16:58N 53°07' E 008°45'0 0.0
2018-Jun-07 16:28N 53°07' E 008°45'0 0.0
2018-Jun-07 15:58N 53°07' E 008°45'0 0.0
2018-Jun-07 15:28N 53°07' E 008°45'0 0.0
2018-Jun-07 14:58N 53°07' E 008°45'0 0.0
2018-Jun-07 14:28N 53°07' E 008°45'0 0.0
2018-Jun-07 13:58N 53°07' E 008°45'0 0.0
2018-Jun-07 13:28N 53°07' E 008°45'0 0.0
2018-Jun-07 12:58N 53°07' E 008°45'0 0.0
2018-Jun-07 12:28N 53°07' E 008°45'0 0.0
2018-Jun-07 11:58N 53°07' E 008°45'0 0.0
2018-Jun-07 11:28N 53°07' E 008°45'0 0.0
2018-Jun-07 10:58N 53°07' E 008°45'0 0.0
2018-Jun-07 10:28N 53°07' E 008°45'0 0.0
2018-Jun-07 09:58N 53°07' E 008°45'0 0.0
2018-Jun-07 09:28N 53°07' E 008°45'0 0.0
2018-Jun-07 08:58N 53°07' E 008°45'0 0.0
2018-Jun-07 08:28N 53°07' E 008°45'0 0.0
2018-Jun-07 07:58N 53°07' E 008°45'0 0.0
2018-Jun-07 07:28N 53°07' E 008°45'0 0.0
2018-Jun-07 06:58N 53°07' E 008°45'0 0.0
2018-Jun-07 06:28N 53°07' E 008°45'0 0.0
2018-Jun-07 05:58N 53°07' E 008°45'0 0.0
2018-Jun-07 05:28N 53°07' E 008°45'  

Dump ship's entire track history